Latest Weather Observations for Hogan Island

IDT60801

Issued at 8:03 pm EDT Sunday 29 March 2015 (issued every 30 minutes, with the page automatically refreshed every 10 minutes)

About weather observations | Map of weather stations | Latest weather observations for TAS | Other Formats
Station Details ID: 200838 Name: HOGAN ISLAND Lat: -39.22 Lon: 146.98 Height: 116.0 m
Data from the previous 72 hours. | See also: Recent months at Hogan Island
Date/Time
EDT
Temp
°C
App
Temp
°C
Dew
Point
Rel
Hum
%
Delta-T
°C
Wind Press
QNH
hPa
Press
MSL
hPa
Rain
since 9 am
mm
Dir
 
Spd
km/h
Gust
km/h
Spd
kts
Gust
kts
29/08:00pm 15.3 8.7 11.5 78 2.0 W 37 44 20 24 1021.8 - 0.0
29/07:30pm 15.4 8.0 11.2 76 2.3 W 41 44 22 24 1021.3 - 0.0
29/07:00pm 15.7 7.9 11.1 74 2.5 W 43 50 23 27 1021.0 - 0.0
29/06:30pm 16.2 7.8 10.9 71 2.8 W 46 52 25 28 1020.7 - 0.0
29/06:00pm 16.9 9.0 10.7 67 3.3 W 43 48 23 26 1020.5 1020.3 0.0
29/05:30pm 17.5 10.0 10.9 65 3.6 W 41 48 22 26 1020.7 - 0.0
29/05:00pm 17.7 10.2 11.0 65 3.6 W 41 46 22 25 1020.7 - 0.0
29/04:30pm 18.2 11.0 10.6 61 4.1 W 39 46 21 25 1020.6 - 0.0
29/04:00pm 18.1 10.5 10.5 61 4.1 W 41 46 22 25 1020.7 - 0.0
29/03:30pm 18.7 11.3 11.3 62 4.0 W 41 48 22 26 1020.7 - 0.0
29/03:00pm 18.4 10.5 11.5 64 3.8 W 44 50 24 27 1020.8 1020.6 0.0
29/02:30pm 18.3 10.6 11.4 64 3.8 W 43 48 23 26 1020.8 - 0.0
29/02:00pm 18.6 12.0 11.2 62 4.0 W 37 43 20 23 1021.1 - 0.0
29/01:30pm 18.6 12.1 11.7 64 3.8 W 37 43 20 23 1021.2 - 0.0
29/01:00pm 17.8 11.6 11.4 66 3.5 W 35 43 19 23 1021.5 - 0.0
29/12:30pm 16.9 10.4 10.5 66 3.4 WNW 35 41 19 22 1021.6 - 0.0
29/12:00pm 16.5 11.0 10.6 68 3.1 WNW 30 37 16 20 1021.7 1021.5 0.0
29/11:30am 16.5 10.7 11.4 72 2.8 WNW 33 41 18 22 1021.7 - 0.0
29/11:00am 15.7 10.1 11.5 76 2.3 WNW 32 37 17 20 1021.7 - 0.0
29/10:30am 15.2 9.4 11.4 78 2.0 WNW 33 39 18 21 1021.8 - 0.0
29/10:00am 15.7 10.5 11.5 76 2.3 WNW 30 35 16 19 1021.7 - 0.0
29/09:30am 15.2 10.3 11.2 77 2.1 WNW 28 35 15 19 1021.5 - 0.0
29/09:00am 14.7 8.9 10.9 78 2.0 WNW 32 35 17 19 1021.4 1021.2 0.2
29/08:30am 14.7 9.0 11.1 79 1.9 WNW 32 35 17 19 1021.4 - 0.2
29/08:00am 14.4 9.0 11.0 80 1.8 WNW 30 33 16 18 1021.3 - 0.2
29/07:30am 14.4 9.0 11.0 80 1.8 WNW 30 35 16 19 1021.0 - 0.2
29/07:00am 14.5 8.5 10.9 79 1.9 WNW 33 37 18 20 1020.9 - 0.2
29/06:30am 14.5 8.8 11.1 80 1.8 WNW 32 35 17 19 1020.6 - 0.2
29/06:00am 14.6 8.9 11.2 80 1.8 WNW 32 37 17 20 1020.2 1020.0 0.2
29/05:30am 14.5 9.6 11.3 81 1.7 WNW 28 35 15 19 1020.0 - 0.2
29/05:00am 14.5 10.6 10.9 79 1.9 WNW 22 30 12 16 1020.0 - 0.2
29/04:30am 14.6 9.6 11.0 79 1.9 WNW 28 32 15 17 1019.6 - 0.2
29/04:00am 14.6 9.6 11.0 79 1.9 WNW 28 35 15 19 1019.6 - 0.2
29/03:30am 14.4 8.5 11.2 81 1.7 WNW 33 39 18 21 1019.9 - 0.2
29/03:00am 14.4 8.5 11.0 80 1.8 WNW 33 41 18 22 1020.3 1020.1 0.2
29/02:30am 14.4 8.8 11.6 83 1.5 WNW 32 39 17 21 1020.6 - 0.2
29/02:00am 14.1 9.0 11.8 86 1.2 W 30 35 16 19 1020.9 - 0.2
29/01:30am 13.9 9.9 11.8 87 1.1 W 24 30 13 16 1021.2 - 0.2
29/01:00am 13.5 9.4 11.6 88 1.0 W 24 28 13 15 1021.3 - 0.2
29/12:30am 13.6 8.7 11.3 86 1.2 WSW 28 33 15 18 1021.5 - 0.2
29/12:00am 14.1 8.4 11.3 83 1.5 W 32 35 17 19 1021.6 1021.4 0.2
 
Date/Time
EDT
Temp
°C
App
Temp
°C
Dew
Point
Rel
Hum
%
Delta-T
°C
Wind Press
QNH
hPa
Press
MSL
hPa
Rain
since 9 am
mm
Dir
 
Spd
km/h
Gust
km/h
Spd
kts
Gust
kts
28/11:30pm 14.0 8.8 11.5 85 1.3 W 30 35 16 19 1021.8 - 0.2
28/11:00pm 13.8 8.1 11.7 87 1.1 W 33 37 18 20 1022.0 - 0.2
28/10:30pm 13.7 7.6 11.9 89 1.0 W 35 43 19 23 1022.0 - 0.2
28/10:00pm 13.3 8.6 11.9 91 0.8 W 28 37 15 20 1021.9 - 0.2
28/09:30pm 13.0 7.7 11.4 90 0.9 W 30 35 16 19 1022.0 - 0.2
28/09:00pm 13.4 7.8 11.6 89 1.0 W 32 37 17 20 1021.8 1021.6 0.2
28/08:30pm 13.6 7.8 11.5 87 1.1 WSW 33 37 18 20 1021.8 - 0.2
28/08:00pm 13.5 7.6 11.2 86 1.2 W 33 39 18 21 1021.7 - 0.2
28/07:30pm 13.8 6.8 11.1 84 1.4 W 39 46 21 25 1021.7 - 0.2
28/07:00pm 14.1 7.9 11.4 84 1.4 W 35 44 19 24 1021.8 - 0.2
28/06:30pm 14.4 6.9 11.0 80 1.8 W 41 46 22 25 1021.8 - 0.2
28/06:00pm 15.0 7.8 11.8 81 1.7 W 41 48 22 26 1021.7 1021.5 0.2
28/05:30pm 13.5 5.7 11.0 85 1.3 W 43 54 23 29 1021.6 - 0.2
28/05:00pm 15.0 8.1 11.6 80 1.8 W 39 46 21 25 1021.6 - 0.2
28/04:30pm 15.2 7.9 12.9 86 1.3 W 43 48 23 26 1021.8 - 0.2
28/04:00pm 14.9 7.8 10.9 77 2.1 W 39 46 21 25 1022.0 - 0.2
28/03:30pm 16.2 8.4 11.8 75 2.4 W 44 50 24 27 1022.0 - 0.2
28/03:00pm 17.3 9.6 12.0 71 2.9 W 44 50 24 27 1022.3 1022.1 0.2
28/02:30pm 16.9 9.2 11.6 71 2.9 W 43 50 23 27 1022.3 - 0.2
28/02:00pm 16.8 9.1 11.5 71 2.9 W 43 48 23 26 1022.6 - 0.2
28/01:30pm 16.1 8.9 10.6 70 2.9 W 39 46 21 25 1022.8 - 0.2
28/01:00pm 16.1 9.1 10.0 67 3.2 W 37 43 20 23 1023.2 - 0.2
28/12:30pm 15.8 10.7 12.0 78 2.1 W 30 39 16 21 1023.5 - 0.2
28/12:00pm 15.5 9.9 13.3 87 1.2 WSW 35 41 19 22 1023.7 1023.5 0.2
28/11:30am 13.9 8.4 12.5 91 0.8 W 33 39 18 21 1024.0 - 0.2
28/11:00am 13.1 6.2 11.7 91 0.7 WSW 39 50 21 27 1023.8 - 0.2
28/10:30am 13.7 8.3 12.1 90 0.9 WSW 32 37 17 20 1024.1 - 0.0
28/10:18am 13.2 7.6 11.6 90 0.9 WSW 32 39 17 21 1024.1 - 0.0
28/10:00am 12.8 6.1 11.0 89 0.9 W 37 44 20 24 1024.0 - 0.0
28/09:40am 13.1 6.1 10.1 82 1.6 W 37 44 20 24 1023.8 - 0.0
28/09:30am 13.9 8.9 9.5 75 2.3 SW 26 32 14 17 1023.9 - 0.0
28/09:00am 13.7 7.2 9.0 73 2.4 SW 33 41 18 22 1023.6 1023.4 0.0
28/08:30am 13.5 6.2 8.6 72 2.5 WSW 37 44 20 24 1023.3 - 0.0
28/08:00am 13.5 7.4 8.4 71 2.6 WSW 30 37 16 20 1023.1 - 0.0
28/07:30am 13.5 5.7 8.1 70 2.7 WSW 39 44 21 24 1022.9 - 0.0
28/07:00am 13.8 6.8 8.4 70 2.7 WSW 35 43 19 23 1022.4 - 0.0
28/06:30am 13.8 6.8 8.6 71 2.6 WSW 35 43 19 23 1022.2 - 0.0
28/06:00am 13.6 6.4 9.1 74 2.3 WSW 37 43 20 23 1022.2 1022.0 0.0
28/05:30am 13.7 6.1 9.0 73 2.4 WSW 39 46 21 25 1022.1 - 0.0
28/05:00am 13.8 6.2 9.0 73 2.4 WSW 39 46 21 25 1021.7 - 0.0
28/04:30am 13.8 6.6 9.3 74 2.3 SW 37 44 20 24 1021.8 - 0.0
28/04:00am 13.8 5.9 9.3 74 2.3 WSW 41 46 22 25 1021.6 - 0.0
28/03:30am 13.8 5.5 9.5 75 2.2 WSW 43 50 23 27 1021.5 - 0.0
28/03:00am 13.8 5.3 9.3 74 2.3 WSW 44 52 24 28 1021.7 1021.5 0.0
28/02:30am 13.7 5.5 9.6 76 2.1 WSW 43 54 23 29 1021.6 - 0.0
28/02:00am 13.7 4.9 9.6 76 2.1 SW 46 54 25 29 1021.5 - 0.0
28/01:30am 13.6 4.4 9.6 77 2.1 WSW 48 57 26 31 1021.4 - 0.0
28/01:00am 13.8 4.7 10.0 78 2.0 WSW 48 57 26 31 1021.5 - 0.0
28/12:30am 14.0 4.2 10.2 78 2.0 WSW 52 61 28 33 1021.3 - 0.0
28/12:00am 13.9 3.7 10.1 78 2.0 WSW 54 61 29 33 1021.3 1021.1 0.0
 
Date/Time
EDT
Temp
°C
App
Temp
°C
Dew
Point
Rel
Hum
%
Delta-T
°C
Wind Press
QNH
hPa
Press
MSL
hPa
Rain
since 9 am
mm
Dir
 
Spd
km/h
Gust
km/h
Spd
kts
Gust
kts
27/11:30pm 14.0 2.9 10.2 78 2.0 WSW 59 69 32 37 1021.1 - 0.0
27/11:00pm 14.1 3.1 10.5 79 1.9 WSW 59 69 32 37 1020.9 - 0.0
27/10:30pm 14.3 2.5 10.5 78 2.0 WSW 63 72 34 39 1021.0 - 0.0
27/10:00pm 14.3 3.0 10.7 79 1.9 WSW 61 72 33 39 1020.7 - 0.0
27/09:30pm 14.4 2.7 10.8 79 1.9 WSW 63 72 34 39 1020.5 - 0.0
27/09:00pm 14.3 1.4 10.7 79 1.9 WSW 69 80 37 43 1020.0 1019.8 0.0
27/08:30pm 14.6 1.7 11.2 80 1.8 WSW 70 80 38 43 1019.4 - 0.0
27/08:00pm 14.6 1.2 10.8 78 2.0 WSW 72 83 39 45 1019.0 - 0.0
27/07:30pm 14.6 0.8 10.8 78 2.0 WSW 74 89 40 48 1018.5 - 0.0
27/07:00pm 14.7 2.0 11.1 79 1.9 WSW 69 83 37 45 1018.2 - 0.0
27/06:30pm 14.7 -0.7 10.5 76 2.2 WSW 82 93 44 50 1017.5 - 0.0
27/06:00pm 15.2 1.5 11.0 76 2.2 WSW 74 89 40 48 1017.3 1017.1 0.0
27/05:43pm 15.5 1.5 11.3 76 2.3 WSW 76 95 41 51 1017.1 - 0.0
27/05:30pm 15.6 1.5 11.0 74 2.5 WSW 76 87 41 47 1016.8 - 0.0
27/05:00pm 15.8 1.0 11.2 74 2.5 WSW 80 91 43 49 1016.4 - 0.0
27/04:30pm 15.6 0.4 11.0 74 2.5 WSW 82 95 44 51 1015.9 - 0.0
27/04:00pm 15.6 0.4 11.0 74 2.5 WSW 82 95 44 51 1015.6 - 0.0
27/03:30pm 16.0 0.1 12.0 77 2.2 W 87 100 47 54 1015.1 - 0.0
27/03:15pm 15.4 0.3 11.6 78 2.1 WSW 82 100 44 54 1015.2 - 0.0
27/03:00pm 16.2 1.1 12.0 76 2.3 WSW 83 96 45 52 1015.0 1014.8 0.0
27/02:30pm 15.9 0.0 11.9 77 2.2 W 87 100 47 54 1015.0 - 0.0
27/02:09pm 16.4 1.6 12.4 77 2.2 W 82 100 44 54 1014.9 - 0.0
27/02:00pm 16.1 -0.2 11.9 76 2.3 WSW 89 104 48 56 1014.7 - 0.0
27/01:43pm 16.0 0.4 11.8 76 2.3 WSW 85 104 46 56 1014.8 - 0.0
27/01:30pm 15.4 -1.2 11.0 75 2.4 WSW 89 100 48 54 1014.8 - 0.0
27/01:06pm 15.1 -0.8 12.1 82 1.6 WSW 87 106 47 57 1015.0 - 0.0
27/01:00pm 15.7 -0.4 12.5 81 1.8 WSW 89 104 48 56 1014.9 - 0.0
27/12:50pm 15.0 0.1 12.3 84 1.5 W 82 102 44 55 1014.7 - 0.0
27/12:30pm 14.0 -1.0 12.0 88 1.1 WSW 82 96 44 52 1015.2 - 0.0
27/12:14pm 13.5 0.2 11.2 86 1.2 WSW 72 93 39 50 1015.2 - 0.0
27/12:00pm 13.3 -1.1 9.9 80 1.8 W 76 87 41 47 1015.5 1015.3 0.0
27/11:30am 14.7 2.1 10.3 75 2.3 W 67 78 36 42 1015.2 - 0.0
27/11:00am 14.6 2.7 10.2 75 2.3 WSW 63 74 34 40 1015.4 - 0.0
27/10:30am 14.2 0.7 9.2 72 2.6 WSW 70 80 38 43 1014.9 - 0.0
27/10:00am 13.8 0.0 9.3 74 2.3 WSW 72 85 39 46 1014.9 - 0.0
27/09:30am 13.5 0.3 9.6 77 2.0 WSW 69 82 37 44 1014.3 - 0.0
27/09:00am 12.3 -1.7 9.9 85 1.2 WSW 74 89 40 48 1013.5 1013.3 6.6
27/08:37am 12.3 -1.4 9.7 84 1.3 SW 72 91 39 49 1012.8 - 6.4
27/08:30am 13.1 -1.2 10.3 83 1.5 WSW 76 91 41 49 1012.5 - 6.4
27/08:09am 13.0 -3.5 11.2 89 1.0 WSW 89 107 48 58 1011.4 - 6.2
27/08:00am 12.4 -5.4 10.8 90 0.8 WSW 95 109 51 59 1010.9 - 6.2
27/07:30am 11.8 -8.3 10.7 93 0.6 W 107 128 58 69 1008.9 - 6.2
27/07:00am 10.9 -6.5 9.3 90 0.8 W 91 117 49 63 1009.5 - 5.6
27/06:56am 13.0 -3.9 11.2 89 1.0 W 91 117 49 63 1009.3 - 5.0
27/06:48am 12.6 -3.9 11.2 91 0.7 W 89 100 48 54 1009.6 - 5.0
27/06:37am 12.3 -0.5 11.0 92 0.7 W 69 96 37 52 1010.0 - 5.0
27/06:30am 11.9 -1.0 10.5 91 0.7 W 69 80 37 43 1010.7 - 4.2
27/06:00am 11.8 -3.3 10.0 89 0.9 W 80 93 43 50 1010.6 1010.5 3.6
27/05:46am 11.9 -2.1 10.1 89 0.9 W 74 93 40 50 1010.9 - 2.6
27/05:30am 11.8 -2.2 10.0 89 0.9 W 74 91 40 49 1010.7 - 2.4
27/05:17am 12.6 -0.2 9.6 82 1.5 W 67 87 36 47 1011.3 - 1.6
27/05:00am 12.5 -0.4 9.0 79 1.8 W 67 76 36 41 1011.5 - 1.4
27/04:30am 11.8 -1.0 9.4 85 1.2 WSW 67 82 36 44 1011.6 - 1.4
27/04:00am 12.5 0.6 10.0 85 1.3 W 63 70 34 38 1011.7 - 1.2
27/03:30am 12.2 1.7 10.3 88 1.0 W 56 65 30 35 1012.0 - 1.2
27/03:00am 11.9 1.3 9.8 87 1.1 W 56 69 30 37 1012.3 1012.1 0.8
27/02:30am 13.0 1.9 8.7 75 2.2 W 57 74 31 40 1012.0 - 0.2
27/02:00am 13.4 1.9 8.5 72 2.5 W 59 69 32 37 1012.1 - 0.2
27/01:30am 13.4 -0.2 8.0 70 2.7 W 69 78 37 42 1011.7 - 0.2
27/01:00am 13.0 -0.8 9.4 79 1.8 WSW 72 82 39 44 1011.6 - 0.2
27/12:30am 13.5 -2.2 9.2 75 2.2 W 82 95 44 51 1011.0 - 0.2
27/12:00am 13.2 -2.7 8.7 74 2.3 W 82 95 44 51 1010.6 1010.5 0.2
 
Date/Time
EDT
Temp
°C
App
Temp
°C
Dew
Point
Rel
Hum
%
Delta-T
°C
Wind Press
QNH
hPa
Press
MSL
hPa
Rain
since 9 am
mm
Dir
 
Spd
km/h
Gust
km/h
Spd
kts
Gust
kts
26/11:30pm 13.1 -2.5 9.9 81 1.7 W 82 93 44 50 1010.2 - 0.2
26/11:04pm 12.8 -2.2 10.5 86 1.2 W 80 104 43 56 1009.7 - 0.0
26/11:00pm 12.7 -2.3 10.4 86 1.2 W 80 95 43 51 1010.4 - 0.0
26/10:30pm 12.4 -3.1 10.1 86 1.2 WNW 82 106 44 57 1009.6 - 0.0
26/10:00pm 12.5 -3.6 9.9 84 1.3 NW 85 109 46 59 1009.3 - 0.0
26/09:30pm 13.0 -3.2 9.8 81 1.6 NW 85 109 46 59 1009.4 - 0.0
26/09:01pm 12.8 -3.6 8.7 76 2.1 NW 85 104 46 56 1010.2 - 0.0
26/09:00pm 13.2 -2.8 9.1 76 2.1 NW 83 100 45 54 1010.5 1010.4 0.0
26/08:30pm 13.1 -3.1 8.0 71 2.5 NW 83 102 45 55 1010.9 - 0.0

Other Formats:

Comma delimited format used in spreadsheet applications
http://www.bom.gov.au/fwo/IDT60801/IDT60801.94949.axf

JavaScript Object Notation format (JSON) in row-major order
http://www.bom.gov.au/fwo/IDT60801/IDT60801.94949.json